createdAt,value
2022-11-27T00:01:50.784Z,5.95
2022-11-27T00:06:49.558Z,5.90
2022-11-27T00:09:18.344Z,5.60
2022-11-27T00:11:49.063Z,5.53
2022-11-27T00:14:18.770Z,6.20
2022-11-27T00:16:50.564Z,5.30
2022-11-27T00:19:19.083Z,5.60
2022-11-27T00:24:17.060Z,5.75
2022-11-27T00:26:46.942Z,7.00
2022-11-27T00:29:15.433Z,5.25
2022-11-27T00:34:12.430Z,6.43
2022-11-27T00:36:43.944Z,4.03
2022-11-27T00:39:16.624Z,5.60
2022-11-27T00:41:45.119Z,5.70
2022-11-27T00:46:42.720Z,6.15
2022-11-27T00:49:13.871Z,5.32
2022-11-27T00:51:42.708Z,6.25
2022-11-27T00:54:11.336Z,5.38
2022-11-27T00:56:41.577Z,6.30
2022-11-27T00:59:11.155Z,5.65
2022-11-27T01:01:42.200Z,5.43
2022-11-27T01:04:14.334Z,6.07
2022-11-27T01:06:43.912Z,6.63
2022-11-27T01:09:13.309Z,6.25
2022-11-27T01:11:43.855Z,6.50
2022-11-27T01:14:15.396Z,7.82
2022-11-27T01:16:44.023Z,5.47
2022-11-27T01:19:14.035Z,4.85
2022-11-27T01:21:42.830Z,6.63
2022-11-27T01:24:13.354Z,5.22
2022-11-27T01:26:43.596Z,5.38
2022-11-27T01:29:13.972Z,5.50
2022-11-27T01:31:42.443Z,6.38
2022-11-27T01:34:15.809Z,4.55
2022-11-27T01:36:44.447Z,5.03
2022-11-27T01:39:16.754Z,6.03
2022-11-27T01:41:48.224Z,5.30
2022-11-27T01:44:49.886Z,5.72
2022-11-27T01:47:29.424Z,6.03
2022-11-27T01:50:08.408Z,5.05
2022-11-27T01:52:40.954Z,5.25
2022-11-27T01:55:13.894Z,4.55
2022-11-27T01:57:48.274Z,5.93
2022-11-27T02:00:19.130Z,4.95
2022-11-27T02:02:48.328Z,3.40
2022-11-27T02:05:20.952Z,4.85
2022-11-27T02:07:50.131Z,3.40
2022-11-27T02:10:18.942Z,4.03
2022-11-27T02:12:56.901Z,3.90
2022-11-27T02:15:36.271Z,4.50
2022-11-27T02:18:13.333Z,3.78
2022-11-27T02:20:49.117Z,4.60
2022-11-27T02:23:53.101Z,4.28
2022-11-27T02:26:53.936Z,6.18
2022-11-27T02:29:25.086Z,5.25
2022-11-27T02:32:00.366Z,5.10
2022-11-27T02:34:36.472Z,4.50
2022-11-27T02:37:13.382Z,4.53
2022-11-27T02:39:47.285Z,3.78
2022-11-27T02:42:20.399Z,4.45
2022-11-27T02:44:56.980Z,5.25
2022-11-27T02:47:25.621Z,5.55
2022-11-27T02:49:57.208Z,3.65
2022-11-27T02:52:28.005Z,3.88
2022-11-27T02:54:59.068Z,2.53
2022-11-27T02:57:29.684Z,5.15
2022-11-27T03:00:00.538Z,4.57
2022-11-27T03:02:33.512Z,5.18
2022-11-27T03:05:05.504Z,4.28
2022-11-27T03:07:38.833Z,4.97
2022-11-27T03:10:13.896Z,5.68
2022-11-27T03:12:42.374Z,4.00
2022-11-27T03:17:53.408Z,4.53
2022-11-27T03:20:24.975Z,3.45
2022-11-27T03:22:54.999Z,5.15
2022-11-27T03:25:24.296Z,4.70
2022-11-27T03:27:57.356Z,4.38
2022-11-27T03:30:27.336Z,4.45
2022-11-27T03:32:56.248Z,3.22
2022-11-27T03:35:26.962Z,4.28
2022-11-27T03:37:56.852Z,4.47
2022-11-27T03:40:31.769Z,4.72
2022-11-27T03:43:06.663Z,4.07
2022-11-27T03:45:42.769Z,4.82
2022-11-27T03:48:22.759Z,4.40
2022-11-27T03:51:01.780Z,5.03
2022-11-27T03:53:38.781Z,4.68
2022-11-27T03:56:13.363Z,4.60
2022-11-27T03:58:47.204Z,4.35
2022-11-27T04:01:21.097Z,5.88
2022-11-27T04:03:49.742Z,4.32
2022-11-27T04:11:15.590Z,4.93
2022-11-27T04:13:44.269Z,5.15
2022-11-27T04:16:12.749Z,4.68
2022-11-27T04:21:12.111Z,4.88
2022-11-27T04:23:40.975Z,4.43
2022-11-27T04:26:09.369Z,4.38
2022-11-27T04:28:37.922Z,4.32
2022-11-27T04:36:04.358Z,4.70
2022-11-27T04:38:32.750Z,4.60
2022-11-27T04:41:01.424Z,4.47
2022-11-27T04:43:30.066Z,4.28
2022-11-27T04:45:58.560Z,4.72
2022-11-27T04:48:27.007Z,4.97
2022-11-27T04:53:25.582Z,3.70
2022-11-27T04:55:54.057Z,3.63
2022-11-27T05:00:50.779Z,4.15
2022-11-27T05:03:19.291Z,4.18
2022-11-27T05:08:15.830Z,4.68
2022-11-27T05:10:47.017Z,4.85
2022-11-27T05:13:15.509Z,4.47
2022-11-27T05:15:43.963Z,5.53
2022-11-27T05:20:40.638Z,4.93
2022-11-27T05:23:08.970Z,4.78
2022-11-27T05:25:37.461Z,4.32
2022-11-27T05:30:35.497Z,4.90
2022-11-27T05:35:32.107Z,3.72
2022-11-27T05:40:28.609Z,3.35
2022-11-27T05:42:57.045Z,4.57
2022-11-27T05:47:55.054Z,4.43
2022-11-27T05:52:51.647Z,4.22
2022-11-27T05:55:19.981Z,3.65
2022-11-27T05:57:48.445Z,4.95
2022-11-27T06:02:47.252Z,4.82
2022-11-27T06:05:18.188Z,4.63
2022-11-27T06:07:46.779Z,5.40
2022-11-27T06:10:15.359Z,4.97
2022-11-27T06:15:14.889Z,4.95
2022-11-27T06:17:43.382Z,4.72
2022-11-27T06:20:13.679Z,3.20
2022-11-27T06:22:42.309Z,5.10
2022-11-27T06:27:39.067Z,4.53
2022-11-27T06:32:36.611Z,4.88
2022-11-27T06:35:05.472Z,4.68
2022-11-27T06:37:35.354Z,4.70
2022-11-27T06:40:04.393Z,4.18
2022-11-27T06:42:32.909Z,5.85
2022-11-27T06:47:31.709Z,3.95
2022-11-27T06:52:28.311Z,5.75
2022-11-27T06:54:58.119Z,5.57
2022-11-27T06:57:26.669Z,5.05
2022-11-27T07:02:23.547Z,4.53
2022-11-27T07:04:52.068Z,4.63
2022-11-27T07:07:20.559Z,4.68
2022-11-27T07:12:19.004Z,5.35
2022-11-27T07:14:47.652Z,4.60
2022-11-27T07:17:16.301Z,5.07
2022-11-27T07:22:12.904Z,3.70
2022-11-27T07:24:41.575Z,5.90
2022-11-27T07:27:10.279Z,5.30
2022-11-27T07:29:40.155Z,6.15
2022-11-27T07:32:08.575Z,5.22
2022-11-27T07:34:36.960Z,4.97
2022-11-27T07:37:05.414Z,5.70
2022-11-27T07:39:54.414Z,6.05
2022-11-27T07:42:37.364Z,5.18
2022-11-27T07:45:09.765Z,3.40
2022-11-27T07:47:38.504Z,5.72
2022-11-27T07:52:41.552Z,5.47
2022-11-27T07:55:13.772Z,5.03
2022-11-27T07:57:42.925Z,6.07
2022-11-27T08:00:13.984Z,4.90
2022-11-27T08:02:42.485Z,6.07
2022-11-27T08:05:12.984Z,5.75
2022-11-27T08:07:41.985Z,6.70
2022-11-27T08:10:10.788Z,6.53
2022-11-27T08:12:39.161Z,5.65
2022-11-27T08:15:08.978Z,6.97
2022-11-27T08:17:38.866Z,6.70
2022-11-27T08:20:10.127Z,5.40
2022-11-27T08:22:38.616Z,6.15
2022-11-27T08:25:08.094Z,6.00
2022-11-27T08:27:36.507Z,5.55
2022-11-27T08:30:05.961Z,6.65
2022-11-27T08:32:34.488Z,5.28
2022-11-27T08:35:04.470Z,5.93
2022-11-27T08:37:36.204Z,6.03
2022-11-27T08:40:05.887Z,5.18
2022-11-27T08:42:34.334Z,6.00
2022-11-27T08:47:32.737Z,5.18
2022-11-27T08:50:01.200Z,5.90
2022-11-27T08:52:33.331Z,5.03
2022-11-27T08:55:01.975Z,5.22
2022-11-27T08:57:31.465Z,5.28
2022-11-27T08:59:59.897Z,4.55
2022-11-27T09:02:28.278Z,5.45
2022-11-27T09:04:56.704Z,4.88
2022-11-27T09:07:25.196Z,6.03
2022-11-27T09:09:55.063Z,4.75
2022-11-27T09:12:23.645Z,5.30
2022-11-27T09:14:52.008Z,6.10
2022-11-27T09:17:20.441Z,5.63
2022-11-27T09:19:51.743Z,4.70
2022-11-27T09:22:20.366Z,4.65
2022-11-27T09:24:48.785Z,4.82
2022-11-27T09:27:18.651Z,6.05
2022-11-27T09:29:47.159Z,6.38
2022-11-27T09:32:15.541Z,5.78
2022-11-27T09:34:44.394Z,5.32
2022-11-27T09:37:13.113Z,6.28
2022-11-27T09:39:41.946Z,4.55
2022-11-27T09:45:00.552Z,5.32
2022-11-27T09:47:41.164Z,5.03
2022-11-27T09:50:16.916Z,6.00
2022-11-27T09:52:49.600Z,4.20
2022-11-27T09:55:23.075Z,5.07
2022-11-27T09:58:00.656Z,6.63
2022-11-27T10:00:30.934Z,4.80
2022-11-27T10:02:59.636Z,6.00
2022-11-27T10:05:39.298Z,6.38
2022-11-27T10:08:23.905Z,5.63
2022-11-27T10:11:06.634Z,5.40
2022-11-27T10:13:47.223Z,6.78
2022-11-27T10:16:24.114Z,6.03
2022-11-27T10:18:56.440Z,5.38
2022-11-27T10:21:35.966Z,5.30
2022-11-27T10:24:16.761Z,6.15
2022-11-27T10:26:48.246Z,7.13
2022-11-27T10:29:31.858Z,6.10
2022-11-27T10:32:06.424Z,5.38
2022-11-27T10:34:41.904Z,5.85
2022-11-27T10:37:18.596Z,6.00
2022-11-27T10:39:54.917Z,5.55
2022-11-27T10:42:29.484Z,6.38
2022-11-27T10:45:02.311Z,5.18
2022-11-27T10:47:35.772Z,6.30
2022-11-27T10:50:04.472Z,5.45
2022-11-27T10:52:33.085Z,5.80
2022-11-27T10:57:51.622Z,5.60
2022-11-27T11:00:24.076Z,5.30
2022-11-27T11:03:03.081Z,5.90
2022-11-27T11:05:50.550Z,5.60
2022-11-27T11:08:21.667Z,5.05
2022-11-27T11:10:54.374Z,6.50
2022-11-27T11:13:27.459Z,6.22
2022-11-27T11:15:59.171Z,6.28
2022-11-27T11:18:31.156Z,5.28
2022-11-27T11:21:02.883Z,6.47
2022-11-27T11:23:34.253Z,7.03
2022-11-27T11:26:14.679Z,7.35
2022-11-27T11:28:54.161Z,7.18
2022-11-27T11:31:29.312Z,7.50
2022-11-27T11:34:01.910Z,7.03
2022-11-27T11:36:31.418Z,5.63
2022-11-27T11:39:00.131Z,6.55
2022-11-27T11:41:38.742Z,6.18
2022-11-27T11:44:07.542Z,7.03
2022-11-27T11:46:38.629Z,6.63
2022-11-27T11:49:18.696Z,7.35
2022-11-27T11:52:10.658Z,7.57
2022-11-27T11:54:53.610Z,5.97
2022-11-27T11:57:49.298Z,6.88
2022-11-27T12:00:19.519Z,5.47
2022-11-27T12:03:08.413Z,5.60
2022-11-27T12:05:49.566Z,5.05
2022-11-27T12:08:40.575Z,6.65
2022-11-27T12:11:16.463Z,6.30
2022-11-27T12:13:55.935Z,6.72
2022-11-27T12:16:35.412Z,7.28
2022-11-27T12:19:25.673Z,6.95
2022-11-27T12:22:04.969Z,7.35
2022-11-27T12:24:45.134Z,7.53
2022-11-27T12:27:24.866Z,6.70
2022-11-27T12:30:17.004Z,6.60
2022-11-27T12:33:07.665Z,7.13
2022-11-27T12:35:43.401Z,7.90
2022-11-27T12:38:29.469Z,7.38
2022-11-27T12:41:15.054Z,7.30
2022-11-27T12:43:49.063Z,8.27
2022-11-27T12:46:24.580Z,7.75
2022-11-27T12:49:00.553Z,7.55
2022-11-27T12:51:33.344Z,5.90
2022-11-27T12:54:07.353Z,6.88
2022-11-27T12:56:41.807Z,7.00
2022-11-27T12:59:17.710Z,7.57
2022-11-27T13:01:51.589Z,7.55
2022-11-27T13:04:25.643Z,7.25
2022-11-27T13:07:01.536Z,7.85
2022-11-27T13:09:42.174Z,7.22
2022-11-27T13:12:15.102Z,7.65
2022-11-27T13:14:48.629Z,7.82
2022-11-27T13:17:21.814Z,6.75
2022-11-27T13:19:52.319Z,8.13
2022-11-27T13:22:27.600Z,7.75
2022-11-27T13:25:01.774Z,7.28
2022-11-27T13:27:36.631Z,7.00
2022-11-27T13:30:08.876Z,7.70
2022-11-27T13:32:42.071Z,7.07
2022-11-27T13:35:22.099Z,6.97
2022-11-27T13:37:57.630Z,8.43
2022-11-27T13:40:31.250Z,6.88
2022-11-27T13:43:06.470Z,7.22
2022-11-27T13:45:38.287Z,7.50
2022-11-27T13:48:32.316Z,7.45
2022-11-27T13:51:01.574Z,7.03
2022-11-27T13:53:36.779Z,7.28
2022-11-27T13:56:07.909Z,8.18
2022-11-27T13:58:38.294Z,7.35
2022-11-27T14:01:18.617Z,6.80
2022-11-27T14:03:48.091Z,6.40
2022-11-27T14:06:36.842Z,7.75
2022-11-27T14:09:10.751Z,8.02
2022-11-27T14:11:45.509Z,7.00
2022-11-27T14:14:20.159Z,6.85
2022-11-27T14:16:57.825Z,7.55
2022-11-27T14:19:33.817Z,6.88
2022-11-27T14:22:03.671Z,7.30
2022-11-27T14:24:44.407Z,8.10
2022-11-27T14:27:22.920Z,7.60
2022-11-27T14:29:54.140Z,7.60
2022-11-27T14:32:23.026Z,7.55
2022-11-27T14:34:51.884Z,6.82
2022-11-27T14:37:25.594Z,8.45
2022-11-27T14:39:54.498Z,9.27
2022-11-27T14:42:28.973Z,7.65
2022-11-27T14:45:07.004Z,7.25
2022-11-27T14:47:37.561Z,6.72
2022-11-27T14:50:07.757Z,8.07
2022-11-27T14:52:36.484Z,8.02
2022-11-27T14:55:07.683Z,6.95
2022-11-27T14:57:37.712Z,7.50
2022-11-27T15:00:16.941Z,7.50
2022-11-27T15:02:46.339Z,7.75
2022-11-27T15:05:21.148Z,7.13
2022-11-27T15:07:51.251Z,6.45
2022-11-27T15:10:29.717Z,7.28
2022-11-27T15:13:01.686Z,6.72
2022-11-27T15:15:34.925Z,6.88
2022-11-27T15:18:08.137Z,6.63
2022-11-27T15:20:40.697Z,6.38
2022-11-27T15:23:21.220Z,6.80
2022-11-27T15:25:53.368Z,6.57
2022-11-27T15:28:36.242Z,8.05
2022-11-27T15:31:25.361Z,6.25
2022-11-27T15:34:05.307Z,6.93
2022-11-27T15:36:43.123Z,6.82
2022-11-27T15:39:19.661Z,7.30
2022-11-27T15:41:55.685Z,7.85
2022-11-27T15:44:27.120Z,6.68
2022-11-27T15:46:57.683Z,7.90
2022-11-27T15:49:27.641Z,8.15
2022-11-27T15:51:57.137Z,7.47
2022-11-27T15:54:26.054Z,6.97
2022-11-27T15:56:54.528Z,7.35
2022-11-27T16:01:53.182Z,8.73
2022-11-27T16:04:23.679Z,6.25
2022-11-27T16:06:52.330Z,7.00
2022-11-27T16:09:21.759Z,5.15
2022-11-27T16:11:51.775Z,6.22
2022-11-27T16:19:18.569Z,7.63
2022-11-27T16:21:47.357Z,7.85
2022-11-27T16:24:17.423Z,6.80
2022-11-27T16:26:46.008Z,8.60
2022-11-27T16:34:11.438Z,6.68
2022-11-27T16:36:44.459Z,7.60
2022-11-27T16:39:15.843Z,8.85
2022-11-27T16:41:47.248Z,8.73
2022-11-27T16:44:16.774Z,8.35
2022-11-27T16:46:46.017Z,8.60
2022-11-27T16:49:15.113Z,7.72
2022-11-27T16:51:45.702Z,8.48
2022-11-27T16:54:15.393Z,8.52
2022-11-27T16:56:47.172Z,9.30
2022-11-27T16:59:16.511Z,7.15
2022-11-27T17:01:45.387Z,7.90
2022-11-27T17:04:20.977Z,7.32
2022-11-27T17:06:55.527Z,7.60
2022-11-27T17:09:32.156Z,7.50
2022-11-27T17:12:00.782Z,6.65
2022-11-27T17:14:30.616Z,8.98
2022-11-27T17:16:59.301Z,7.25
2022-11-27T17:19:32.471Z,8.50
2022-11-27T17:22:03.308Z,8.27
2022-11-27T17:24:36.787Z,7.22
2022-11-27T17:27:09.121Z,8.23
2022-11-27T17:29:48.024Z,7.30
2022-11-27T17:32:19.661Z,6.47
2022-11-27T17:34:50.105Z,7.70
2022-11-27T17:37:20.853Z,6.18
2022-11-27T17:39:49.526Z,6.95
2022-11-27T17:42:22.480Z,8.13
2022-11-27T17:44:54.589Z,8.45
2022-11-27T17:47:23.462Z,9.45
2022-11-27T17:49:51.938Z,8.27
2022-11-27T17:54:53.598Z,7.82
2022-11-27T17:57:23.118Z,9.00
2022-11-27T17:59:52.407Z,8.82
2022-11-27T18:02:21.103Z,8.02
2022-11-27T18:04:51.743Z,7.57
2022-11-27T18:07:23.092Z,7.70
2022-11-27T18:09:57.204Z,7.63
2022-11-27T18:12:25.821Z,7.32
2022-11-27T18:15:01.396Z,9.10
2022-11-27T18:17:32.014Z,8.40
2022-11-27T18:20:00.645Z,8.07
2022-11-27T18:24:58.801Z,8.15
2022-11-27T18:29:58.034Z,8.15
2022-11-27T18:32:26.737Z,7.30
2022-11-27T18:39:59.402Z,7.50
2022-11-27T18:42:30.706Z,8.25
2022-11-27T18:45:16.079Z,8.48
2022-11-27T18:47:57.883Z,8.48
2022-11-27T18:50:30.789Z,7.45
2022-11-27T18:52:59.503Z,8.48
2022-11-27T18:57:57.466Z,5.60
2022-11-27T19:00:26.719Z,7.50
2022-11-27T19:05:23.767Z,7.28
2022-11-27T19:08:18.557Z,8.55
2022-11-27T19:10:52.468Z,7.78
2022-11-27T19:13:21.166Z,8.98
2022-11-27T19:15:52.409Z,9.15
2022-11-27T19:18:21.072Z,7.70
2022-11-27T19:20:53.974Z,8.45
2022-11-27T19:23:25.613Z,8.88
2022-11-27T19:28:25.078Z,8.07
2022-11-27T19:30:53.620Z,8.65
2022-11-27T19:35:50.346Z,6.75
2022-11-27T19:38:19.074Z,9.70
2022-11-27T19:40:48.357Z,7.63
2022-11-27T19:43:18.534Z,9.02
2022-11-27T19:45:49.039Z,8.25
2022-11-27T19:48:22.873Z,6.82
2022-11-27T19:50:52.875Z,7.20
2022-11-27T19:53:23.043Z,7.13
2022-11-27T19:55:57.232Z,6.43
2022-11-27T19:58:27.378Z,8.82
2022-11-27T20:00:55.971Z,9.52
2022-11-27T20:06:03.118Z,8.80
2022-11-27T20:08:31.729Z,9.82
2022-11-27T20:13:30.133Z,9.48
2022-11-27T20:15:58.870Z,7.80
2022-11-27T20:18:29.972Z,9.70
2022-11-27T20:21:06.333Z,9.65
2022-11-27T20:23:35.242Z,9.25
2022-11-27T20:26:07.496Z,9.07
2022-11-27T20:28:38.940Z,8.85
2022-11-27T20:31:07.414Z,10.05
2022-11-27T20:33:35.970Z,9.73
2022-11-27T20:36:05.118Z,8.43
2022-11-27T20:38:33.772Z,9.25
2022-11-27T20:41:06.970Z,10.23
2022-11-27T20:43:35.440Z,9.57
2022-11-27T20:46:07.862Z,10.55
2022-11-27T20:48:36.767Z,9.57
2022-11-27T20:51:08.727Z,8.40
2022-11-27T20:53:37.562Z,9.35
2022-11-27T20:56:08.950Z,8.52
2022-11-27T20:58:41.197Z,9.80
2022-11-27T21:01:18.020Z,8.13
2022-11-27T21:03:49.911Z,9.25
2022-11-27T21:06:21.549Z,9.38
2022-11-27T21:08:50.511Z,8.80
2022-11-27T21:11:25.183Z,8.10
2022-11-27T21:13:58.275Z,7.60
2022-11-27T21:16:30.472Z,9.32
2022-11-27T21:19:01.167Z,10.07
2022-11-27T21:21:31.072Z,8.70
2022-11-27T21:24:00.963Z,8.75
2022-11-27T21:26:30.298Z,10.43
2022-11-27T21:28:59.056Z,9.15
2022-11-27T21:31:34.497Z,9.25
2022-11-27T21:34:07.263Z,9.88
2022-11-27T21:36:39.368Z,10.48
2022-11-27T21:39:12.795Z,8.27
2022-11-27T21:41:42.595Z,9.77
2022-11-27T21:44:13.343Z,4.95
2022-11-27T21:46:43.827Z,7.78
2022-11-27T21:49:15.617Z,9.80
2022-11-27T21:51:44.556Z,10.27
2022-11-27T21:54:16.138Z,8.38
2022-11-27T21:56:44.777Z,8.38
2022-11-27T21:59:15.132Z,9.82
2022-11-27T22:01:45.935Z,8.50
2022-11-27T22:04:14.781Z,8.23
2022-11-27T22:09:16.068Z,8.02
2022-11-27T22:11:46.699Z,8.52
2022-11-27T22:14:18.735Z,8.95
2022-11-27T22:16:48.802Z,11.15
2022-11-27T22:19:17.612Z,8.95
2022-11-27T22:21:46.625Z,9.98
2022-11-27T22:24:19.280Z,8.02
2022-11-27T22:26:51.940Z,8.85
2022-11-27T22:29:21.113Z,9.52
2022-11-27T22:31:53.138Z,8.23
2022-11-27T22:34:22.217Z,8.30
2022-11-27T22:39:19.078Z,8.65
2022-11-27T22:41:48.136Z,6.57
2022-11-27T22:46:46.920Z,6.32
2022-11-27T22:49:18.919Z,5.75
2022-11-27T22:51:48.137Z,10.02
2022-11-27T22:54:18.178Z,9.38
2022-11-27T22:56:48.056Z,8.82
2022-11-27T22:59:32.123Z,9.48
2022-11-27T23:02:05.172Z,8.52
2022-11-27T23:04:36.248Z,9.45
2022-11-27T23:07:06.255Z,7.95
2022-11-27T23:09:35.367Z,8.63
2022-11-27T23:14:32.176Z,9.02
2022-11-27T23:22:00.690Z,7.90
2022-11-27T23:24:31.489Z,9.15
2022-11-27T23:26:59.970Z,10.60
2022-11-27T23:29:28.429Z,9.45
2022-11-27T23:31:56.899Z,10.18
2022-11-27T23:36:53.441Z,7.72
2022-11-27T23:39:23.346Z,8.85
2022-11-27T23:41:51.794Z,7.88
2022-11-27T23:44:22.086Z,8.70
2022-11-27T23:46:50.594Z,8.45
2022-11-27T23:49:19.107Z,8.80
2022-11-27T23:54:16.712Z,8.63
2022-11-27T23:59:14.719Z,8.93
